createdAt,value
2022-08-19T00:01:53.284Z,4.88
2022-08-19T00:04:39.224Z,4.90
2022-08-19T00:07:24.375Z,4.95
2022-08-19T00:10:12.598Z,5.00
2022-08-19T00:12:57.485Z,4.82
2022-08-19T00:15:45.624Z,5.32
2022-08-19T00:18:30.538Z,4.60
2022-08-19T00:21:16.521Z,4.90
2022-08-19T00:24:02.093Z,4.85
2022-08-19T00:26:47.306Z,4.68
2022-08-19T00:29:32.409Z,4.72
2022-08-19T00:32:18.132Z,5.75
2022-08-19T00:35:04.864Z,5.20
2022-08-19T00:37:50.832Z,4.95
2022-08-19T00:40:36.405Z,5.28
2022-08-19T00:43:24.053Z,5.68
2022-08-19T00:46:09.492Z,5.68
2022-08-19T00:48:56.804Z,5.28
2022-08-19T00:51:43.050Z,5.82
2022-08-19T00:54:39.918Z,5.63
2022-08-19T00:57:36.046Z,5.53
2022-08-19T01:00:24.160Z,4.93
2022-08-19T01:03:12.909Z,5.45
2022-08-19T01:05:57.912Z,5.50
2022-08-19T01:08:43.391Z,5.55
2022-08-19T01:11:30.996Z,5.25
2022-08-19T01:14:17.682Z,5.57
2022-08-19T01:17:03.306Z,5.68
2022-08-19T01:19:49.139Z,5.43
2022-08-19T01:22:46.154Z,5.35
2022-08-19T01:25:36.495Z,4.85
2022-08-19T01:28:33.820Z,5.30
2022-08-19T01:31:26.987Z,5.80
2022-08-19T01:34:12.751Z,5.97
2022-08-19T01:36:58.154Z,6.68
2022-08-19T01:39:44.329Z,6.53
2022-08-19T01:42:30.840Z,6.70
2022-08-19T01:45:17.569Z,6.63
2022-08-19T01:48:03.524Z,6.72
2022-08-19T01:50:48.924Z,6.88
2022-08-19T01:53:34.526Z,6.60
2022-08-19T01:56:20.046Z,6.10
2022-08-19T01:59:11.695Z,6.60
2022-08-19T02:01:56.716Z,6.60
2022-08-19T02:04:41.965Z,6.93
2022-08-19T02:07:29.234Z,6.15
2022-08-19T02:10:20.298Z,6.18
2022-08-19T02:13:05.494Z,5.72
2022-08-19T02:15:50.643Z,5.63
2022-08-19T02:18:36.110Z,5.93
2022-08-19T02:21:23.398Z,5.90
2022-08-19T02:24:08.412Z,5.28
2022-08-19T02:26:53.837Z,5.90
2022-08-19T02:29:38.862Z,5.85
2022-08-19T02:32:24.034Z,5.53
2022-08-19T02:35:12.422Z,5.43
2022-08-19T02:38:16.529Z,4.80
2022-08-19T02:41:05.396Z,5.00
2022-08-19T02:44:28.548Z,5.22
2022-08-19T02:46:56.393Z,5.10
2022-08-19T02:49:42.108Z,4.95
2022-08-19T02:52:28.363Z,4.35
2022-08-19T02:55:13.593Z,4.15
2022-08-19T02:57:58.657Z,4.13
2022-08-19T03:00:46.626Z,4.15
2022-08-19T03:03:32.861Z,4.10
2022-08-19T03:06:18.412Z,5.13
2022-08-19T03:09:03.674Z,4.07
2022-08-19T03:11:48.997Z,4.05
2022-08-19T03:14:38.158Z,3.80
2022-08-19T03:17:23.179Z,3.65
2022-08-19T03:20:08.871Z,3.50
2022-08-19T03:22:54.233Z,3.72
2022-08-19T03:25:46.528Z,3.55
2022-08-19T03:28:49.519Z,3.45
2022-08-19T03:31:45.549Z,3.35
2022-08-19T03:34:39.321Z,3.72
2022-08-19T03:37:24.538Z,3.78
2022-08-19T03:40:16.354Z,3.90
2022-08-19T03:43:02.007Z,3.55
2022-08-19T03:45:47.914Z,3.40
2022-08-19T03:48:33.959Z,4.10
2022-08-19T03:51:30.668Z,3.35
2022-08-19T03:54:20.187Z,3.45
2022-08-19T03:57:05.253Z,3.43
2022-08-19T03:59:50.727Z,3.88
2022-08-19T04:02:35.799Z,4.10
2022-08-19T04:05:21.561Z,3.88
2022-08-19T04:08:14.001Z,3.45
2022-08-19T04:10:59.250Z,3.30
2022-08-19T04:13:45.341Z,3.55
2022-08-19T04:16:34.977Z,3.53
2022-08-19T04:19:21.194Z,3.00
2022-08-19T04:22:06.379Z,3.60
2022-08-19T04:24:51.463Z,3.30
2022-08-19T04:27:36.500Z,3.08
2022-08-19T04:30:23.485Z,3.30
2022-08-19T04:33:09.586Z,3.08
2022-08-19T04:35:54.526Z,2.95
2022-08-19T04:38:39.755Z,2.95
2022-08-19T04:41:44.664Z,3.00
2022-08-19T04:44:33.290Z,2.92
2022-08-19T04:47:20.157Z,2.80
2022-08-19T04:50:27.113Z,2.97
2022-08-19T04:53:12.062Z,2.97
2022-08-19T04:55:58.624Z,2.97
2022-08-19T04:58:45.256Z,3.50
2022-08-19T05:01:33.229Z,3.20
2022-08-19T05:04:21.531Z,2.88
2022-08-19T05:07:08.885Z,2.83
2022-08-19T05:09:58.390Z,2.70
2022-08-19T05:12:44.121Z,2.60
2022-08-19T05:15:29.225Z,2.80
2022-08-19T05:18:32.996Z,2.72
2022-08-19T05:21:39.189Z,2.85
2022-08-19T05:24:24.875Z,3.08
2022-08-19T05:27:10.165Z,2.47
2022-08-19T05:29:55.589Z,3.10
2022-08-19T05:32:41.267Z,2.70
2022-08-19T05:35:26.513Z,2.72
2022-08-19T05:38:12.097Z,2.70
2022-08-19T05:40:58.577Z,2.63
2022-08-19T05:43:43.926Z,2.20
2022-08-19T05:46:29.172Z,2.10
2022-08-19T05:49:16.663Z,2.10
2022-08-19T05:52:11.760Z,2.38
2022-08-19T05:54:57.807Z,1.80
2022-08-19T05:57:42.953Z,1.95
2022-08-19T06:00:28.606Z,1.58
2022-08-19T06:03:13.565Z,1.92
2022-08-19T06:06:00.396Z,2.10
2022-08-19T06:08:51.615Z,1.65
2022-08-19T06:11:46.125Z,2.10
2022-08-19T06:14:35.101Z,1.95
2022-08-19T06:17:26.622Z,1.77
2022-08-19T06:20:15.790Z,2.00
2022-08-19T06:23:00.810Z,2.00
2022-08-19T06:25:45.992Z,3.80
2022-08-19T06:28:31.150Z,2.20
2022-08-19T06:31:21.953Z,2.00
2022-08-19T06:34:07.077Z,2.00
2022-08-19T06:36:53.382Z,1.98
2022-08-19T06:39:40.193Z,2.08
2022-08-19T06:42:25.562Z,2.15
2022-08-19T06:45:11.251Z,2.10
2022-08-19T06:47:57.046Z,1.63
2022-08-19T06:50:42.078Z,2.28
2022-08-19T06:53:29.040Z,1.75
2022-08-19T06:56:16.581Z,1.83
2022-08-19T06:59:07.968Z,1.55
2022-08-19T07:01:55.262Z,1.80
2022-08-19T07:04:42.677Z,1.60
2022-08-19T07:07:27.826Z,1.55
2022-08-19T07:10:13.029Z,1.95
2022-08-19T07:12:58.326Z,2.60
2022-08-19T07:15:44.336Z,2.20
2022-08-19T07:18:29.304Z,1.75
2022-08-19T07:21:17.581Z,1.75
2022-08-19T07:24:05.416Z,0.95
2022-08-19T07:26:54.899Z,1.08
2022-08-19T07:29:39.860Z,1.10
2022-08-19T07:32:28.432Z,1.17
2022-08-19T07:35:13.449Z,0.90
2022-08-19T07:38:00.149Z,1.08
2022-08-19T07:40:46.853Z,0.77
2022-08-19T07:43:34.836Z,0.52
2022-08-19T07:46:23.782Z,0.70
2022-08-19T07:49:20.086Z,0.60
2022-08-19T07:52:08.952Z,0.55
2022-08-19T07:54:53.863Z,0.50
2022-08-19T07:57:39.822Z,0.60
2022-08-19T08:00:25.011Z,0.88
2022-08-19T08:03:15.718Z,0.70
2022-08-19T08:06:19.663Z,0.65
2022-08-19T08:09:12.418Z,0.70
2022-08-19T08:12:32.873Z,0.85
2022-08-19T08:15:17.291Z,0.70
2022-08-19T08:18:02.433Z,0.88
2022-08-19T08:20:47.841Z,1.00
2022-08-19T08:23:32.689Z,0.60
2022-08-19T08:26:19.386Z,0.45
2022-08-19T08:29:12.232Z,0.50
2022-08-19T08:31:58.662Z,0.35
2022-08-19T08:34:45.364Z,0.70
2022-08-19T08:37:35.170Z,1.05
2022-08-19T08:40:44.647Z,0.60
2022-08-19T08:43:34.225Z,0.63
2022-08-19T08:46:30.769Z,0.70
2022-08-19T08:49:44.605Z,0.30
2022-08-19T08:52:36.961Z,0.35
2022-08-19T08:55:36.857Z,0.70
2022-08-19T08:58:32.647Z,0.55
2022-08-19T09:01:18.114Z,0.98
2022-08-19T09:04:08.284Z,0.45
2022-08-19T09:07:36.007Z,0.50
2022-08-19T09:10:56.438Z,0.40
2022-08-19T09:14:23.560Z,0.47
2022-08-19T09:17:16.681Z,0.50
2022-08-19T09:20:16.814Z,0.90
2022-08-19T09:23:02.885Z,0.40
2022-08-19T09:25:47.984Z,0.50
2022-08-19T09:28:33.273Z,0.50
2022-08-19T09:31:22.355Z,0.40
2022-08-19T09:34:07.231Z,0.50
2022-08-19T09:36:54.137Z,0.40
2022-08-19T09:39:41.898Z,0.32
2022-08-19T09:42:30.039Z,0.43
2022-08-19T09:45:22.881Z,0.40
2022-08-19T09:48:07.860Z,0.30
2022-08-19T09:50:54.824Z,0.30
2022-08-19T09:53:40.187Z,0.50
2022-08-19T09:56:25.524Z,0.40
2022-08-19T09:59:11.331Z,0.45
2022-08-19T10:01:56.759Z,0.50
2022-08-19T10:05:07.877Z,0.38
2022-08-19T10:07:53.399Z,0.50
2022-08-19T10:10:38.532Z,0.40
2022-08-19T10:13:31.074Z,0.40
2022-08-19T10:16:19.752Z,0.43
2022-08-19T10:19:06.084Z,0.43
2022-08-19T10:21:51.330Z,0.60
2022-08-19T10:24:36.426Z,0.60
2022-08-19T10:27:22.264Z,0.30
2022-08-19T10:30:10.051Z,0.40
2022-08-19T10:35:42.662Z,0.38
2022-08-19T10:38:51.232Z,0.73
2022-08-19T10:41:41.164Z,0.50
2022-08-19T10:44:32.097Z,0.50
2022-08-19T10:47:25.714Z,0.50
2022-08-19T10:50:30.161Z,0.57
2022-08-19T10:53:15.120Z,0.60
2022-08-19T10:56:18.620Z,0.50
2022-08-19T10:59:04.470Z,0.70
2022-08-19T11:01:50.573Z,0.40
2022-08-19T11:04:40.130Z,0.80
2022-08-19T11:07:27.374Z,0.60
2022-08-19T11:10:18.226Z,0.50
2022-08-19T11:13:05.999Z,0.90
2022-08-19T11:16:06.795Z,1.00
2022-08-19T11:18:55.881Z,0.77
2022-08-19T11:21:43.873Z,0.68
2022-08-19T11:24:29.921Z,0.70
2022-08-19T11:27:15.253Z,1.70
2022-08-19T11:30:01.487Z,1.27
2022-08-19T11:32:51.920Z,0.86
2022-08-19T11:35:40.985Z,0.90
2022-08-19T11:38:26.909Z,0.90
2022-08-19T11:41:12.074Z,0.80
2022-08-19T11:43:57.410Z,1.10
2022-08-19T11:46:47.444Z,1.25
2022-08-19T11:49:32.756Z,1.40
2022-08-19T11:52:18.138Z,1.23
2022-08-19T11:55:03.649Z,1.10
2022-08-19T11:57:48.731Z,1.10
2022-08-19T12:00:36.389Z,1.30
2022-08-19T12:03:21.701Z,1.50
2022-08-19T12:06:09.810Z,1.40
2022-08-19T12:08:56.345Z,1.27
2022-08-19T12:11:41.981Z,1.40
2022-08-19T12:14:28.873Z,1.35
2022-08-19T12:17:14.328Z,1.23
2022-08-19T12:19:59.252Z,1.50
2022-08-19T12:22:44.605Z,1.42
2022-08-19T12:25:29.558Z,1.02
2022-08-19T12:28:14.841Z,1.23
2022-08-19T12:31:00.280Z,1.58
2022-08-19T12:33:47.677Z,1.30
2022-08-19T12:36:32.779Z,1.25
2022-08-19T12:39:18.406Z,1.60
2022-08-19T12:42:03.297Z,1.73
2022-08-19T12:44:48.537Z,1.55
2022-08-19T12:47:34.009Z,1.50
2022-08-19T12:50:23.293Z,1.63
2022-08-19T12:53:08.680Z,1.48
2022-08-19T12:55:58.396Z,1.58
2022-08-19T13:01:35.408Z,1.65
2022-08-19T13:04:20.810Z,2.00
2022-08-19T13:07:05.952Z,1.63
2022-08-19T13:09:52.856Z,1.90
2022-08-19T13:12:37.777Z,1.90
2022-08-19T13:15:24.508Z,1.40
2022-08-19T13:18:11.467Z,1.80
2022-08-19T13:20:57.402Z,1.63
2022-08-19T13:23:42.521Z,1.73
2022-08-19T13:26:27.853Z,1.70
2022-08-19T13:29:31.802Z,1.80
2022-08-19T13:32:35.801Z,1.80
2022-08-19T13:35:21.182Z,1.67
2022-08-19T13:38:11.972Z,2.20
2022-08-19T13:41:08.125Z,2.40
2022-08-19T13:43:55.719Z,2.40
2022-08-19T13:46:40.773Z,1.90
2022-08-19T13:49:25.975Z,1.75
2022-08-19T13:52:10.875Z,1.77
2022-08-19T13:54:57.412Z,1.88
2022-08-19T13:57:43.164Z,1.50
2022-08-19T14:00:31.635Z,2.35
2022-08-19T14:03:17.128Z,1.90
2022-08-19T14:06:02.860Z,2.08
2022-08-19T14:08:48.015Z,2.20
2022-08-19T14:11:33.237Z,2.30
2022-08-19T14:14:18.332Z,1.95
2022-08-19T14:17:07.090Z,2.13
2022-08-19T14:20:10.497Z,2.33
2022-08-19T14:22:56.434Z,1.83
2022-08-19T14:25:41.889Z,1.83
2022-08-19T14:28:28.310Z,2.13
2022-08-19T14:31:19.357Z,2.10
2022-08-19T14:34:04.489Z,1.58
2022-08-19T14:36:49.939Z,1.50
2022-08-19T14:39:35.300Z,1.38
2022-08-19T14:42:20.991Z,2.45
2022-08-19T14:45:07.221Z,1.95
2022-08-19T14:47:52.940Z,1.88
2022-08-19T14:50:38.445Z,1.60
2022-08-19T14:53:23.466Z,1.65
2022-08-19T14:56:11.805Z,1.38
2022-08-19T14:59:00.301Z,1.33
2022-08-19T15:01:45.591Z,1.65
2022-08-19T15:04:33.699Z,1.55
2022-08-19T15:07:19.068Z,1.73
2022-08-19T15:10:10.532Z,1.60
2022-08-19T15:12:55.833Z,2.08
2022-08-19T15:15:40.970Z,1.67
2022-08-19T15:18:26.319Z,1.60
2022-08-19T15:21:13.461Z,1.60
2022-08-19T15:23:59.820Z,1.38
2022-08-19T15:26:45.019Z,1.73
2022-08-19T15:29:30.169Z,1.60
2022-08-19T15:32:15.441Z,1.70
2022-08-19T15:35:02.434Z,1.85
2022-08-19T15:37:51.131Z,1.50
2022-08-19T15:40:36.384Z,2.25
2022-08-19T15:43:22.286Z,2.00
2022-08-19T15:46:07.487Z,1.95
2022-08-19T15:48:55.952Z,1.27
2022-08-19T15:54:28.762Z,1.65
2022-08-19T15:57:22.821Z,1.67
2022-08-19T16:00:26.891Z,1.60
2022-08-19T16:03:33.061Z,1.65
2022-08-19T16:06:28.230Z,1.30
2022-08-19T16:09:14.172Z,1.67
2022-08-19T16:12:06.074Z,1.83
2022-08-19T16:14:51.019Z,2.05
2022-08-19T16:17:36.502Z,1.38
2022-08-19T16:20:22.239Z,1.58
2022-08-19T16:23:10.079Z,1.42
2022-08-19T16:25:55.289Z,1.50
2022-08-19T16:28:41.553Z,1.65
2022-08-19T16:31:27.459Z,1.65
2022-08-19T16:34:13.771Z,2.38
2022-08-19T16:36:58.716Z,2.10
2022-08-19T16:39:44.551Z,1.83
2022-08-19T16:42:29.636Z,1.85
2022-08-19T16:45:15.209Z,1.83
2022-08-19T16:48:00.727Z,2.40
2022-08-19T16:50:49.461Z,2.10
2022-08-19T16:56:21.425Z,1.90
2022-08-19T16:59:06.523Z,1.83
2022-08-19T17:01:52.321Z,1.35
2022-08-19T17:04:37.465Z,1.88
2022-08-19T17:07:22.706Z,1.60
2022-08-19T17:10:08.729Z,1.67
2022-08-19T17:12:54.827Z,1.27
2022-08-19T17:15:40.230Z,1.88
2022-08-19T17:18:26.180Z,1.38
2022-08-19T17:21:16.731Z,1.83
2022-08-19T17:24:04.930Z,1.50
2022-08-19T17:26:49.843Z,1.27
2022-08-19T17:29:34.871Z,1.70
2022-08-19T17:32:24.772Z,1.50
2022-08-19T17:35:10.941Z,1.70
2022-08-19T17:37:56.447Z,1.63
2022-08-19T17:40:43.050Z,2.13
2022-08-19T17:43:32.346Z,2.00
2022-08-19T17:46:20.293Z,1.67
2022-08-19T17:49:06.665Z,1.95
2022-08-19T17:51:53.398Z,1.90
2022-08-19T17:54:38.781Z,2.00
2022-08-19T17:57:24.455Z,1.83
2022-08-19T18:00:15.972Z,1.98
2022-08-19T18:03:04.729Z,2.13
2022-08-19T18:05:51.313Z,2.42
2022-08-19T18:08:38.910Z,1.90
2022-08-19T18:11:24.374Z,2.00
2022-08-19T18:14:09.646Z,1.88
2022-08-19T18:16:58.141Z,1.58
2022-08-19T18:19:44.359Z,2.00
2022-08-19T18:22:36.919Z,1.95
2022-08-19T18:25:25.758Z,2.10
2022-08-19T18:28:10.710Z,2.10
2022-08-19T18:30:56.390Z,2.08
2022-08-19T18:33:44.173Z,2.15
2022-08-19T18:36:52.515Z,2.23
2022-08-19T18:39:53.881Z,2.30
2022-08-19T18:43:22.868Z,1.85
2022-08-19T18:46:26.743Z,1.90
2022-08-19T18:49:30.690Z,1.92
2022-08-19T18:52:15.933Z,1.88
2022-08-19T18:55:01.638Z,2.30
2022-08-19T18:57:46.689Z,2.40
2022-08-19T19:00:32.158Z,2.00
2022-08-19T19:03:17.289Z,2.88
2022-08-19T19:06:03.617Z,2.33
2022-08-19T19:08:50.253Z,3.80
2022-08-19T19:11:39.158Z,2.55
2022-08-19T19:14:48.183Z,2.10
2022-08-19T19:17:34.617Z,2.50
2022-08-19T19:20:19.930Z,2.20
2022-08-19T19:23:05.069Z,2.33
2022-08-19T19:25:52.304Z,2.30
2022-08-19T19:28:43.577Z,2.38
2022-08-19T19:31:28.828Z,1.80
2022-08-19T19:34:28.893Z,2.40
2022-08-19T19:37:16.249Z,2.35
2022-08-19T19:40:01.614Z,2.40
2022-08-19T19:42:48.103Z,2.78
2022-08-19T19:45:33.484Z,2.80
2022-08-19T19:48:18.397Z,2.83
2022-08-19T19:51:04.450Z,2.30
2022-08-19T19:53:49.548Z,2.20
2022-08-19T19:56:35.348Z,2.78
2022-08-19T19:59:20.718Z,2.58
2022-08-19T20:02:06.303Z,2.38
2022-08-19T20:04:52.871Z,2.50
2022-08-19T20:07:57.488Z,2.08
2022-08-19T20:10:43.733Z,1.90
2022-08-19T20:13:29.484Z,2.45
2022-08-19T20:16:14.498Z,1.90
2022-08-19T20:19:01.890Z,2.25
2022-08-19T20:21:51.419Z,2.20
2022-08-19T20:24:37.222Z,2.83
2022-08-19T20:27:23.589Z,3.70
2022-08-19T20:30:19.500Z,2.45
2022-08-19T20:33:08.345Z,2.28
2022-08-19T20:35:53.969Z,2.00
2022-08-19T20:38:39.622Z,2.53
2022-08-19T20:41:24.822Z,2.08
2022-08-19T20:44:10.103Z,2.78
2022-08-19T20:46:58.388Z,2.80
2022-08-19T20:49:45.749Z,2.10
2022-08-19T20:52:31.256Z,2.63
2022-08-19T20:55:16.537Z,2.63
2022-08-19T20:58:03.941Z,2.38
2022-08-19T21:00:49.902Z,2.42
2022-08-19T21:03:42.495Z,2.10
2022-08-19T21:06:28.456Z,3.33
2022-08-19T21:09:14.986Z,2.28
2022-08-19T21:12:00.092Z,2.33
2022-08-19T21:14:45.645Z,2.60
2022-08-19T21:17:31.419Z,2.65
2022-08-19T21:20:16.458Z,2.17
2022-08-19T21:23:06.787Z,2.00
2022-08-19T21:25:54.547Z,2.45
2022-08-19T21:28:40.130Z,2.30
2022-08-19T21:31:25.333Z,2.13
2022-08-19T21:34:10.595Z,2.00
2022-08-19T21:36:55.588Z,2.40
2022-08-19T21:39:40.695Z,2.35
2022-08-19T21:42:25.796Z,2.10
2022-08-19T21:45:12.164Z,2.67
2022-08-19T21:47:57.063Z,2.50
2022-08-19T21:50:44.412Z,1.98
2022-08-19T21:53:34.584Z,1.88
2022-08-19T21:56:20.133Z,1.98
2022-08-19T21:59:05.264Z,2.30
2022-08-19T22:02:05.648Z,2.35
2022-08-19T22:04:57.226Z,2.10
2022-08-19T22:07:42.824Z,2.30
2022-08-19T22:10:31.210Z,2.10
2022-08-19T22:13:18.231Z,2.00
2022-08-19T22:16:04.349Z,2.17
2022-08-19T22:18:54.325Z,2.25
2022-08-19T22:21:41.261Z,1.75
2022-08-19T22:24:27.019Z,2.05
2022-08-19T22:27:12.341Z,2.13
2022-08-19T22:29:58.290Z,1.63
2022-08-19T22:32:48.829Z,1.92
2022-08-19T22:35:42.778Z,1.80
2022-08-19T22:38:28.202Z,2.40
2022-08-19T22:41:13.453Z,1.50
2022-08-19T22:43:59.074Z,2.00
2022-08-19T22:46:44.169Z,2.20
2022-08-19T22:49:29.372Z,1.92
2022-08-19T22:52:19.245Z,1.88
2022-08-19T22:55:06.804Z,1.98
2022-08-19T22:57:53.432Z,1.60
2022-08-19T23:00:38.644Z,1.77
2022-08-19T23:03:25.258Z,1.52
2022-08-19T23:06:10.770Z,2.10
2022-08-19T23:08:56.763Z,1.88
2022-08-19T23:11:42.383Z,2.30
2022-08-19T23:14:28.104Z,1.70
2022-08-19T23:17:13.065Z,1.70
2022-08-19T23:19:59.825Z,1.58
2022-08-19T23:22:49.551Z,1.63
2022-08-19T23:25:36.506Z,1.35
2022-08-19T23:28:41.190Z,1.60
2022-08-19T23:31:26.799Z,1.85
2022-08-19T23:34:11.881Z,1.30
2022-08-19T23:36:56.716Z,1.40
2022-08-19T23:39:41.610Z,1.70
2022-08-19T23:42:28.853Z,1.40
2022-08-19T23:45:14.771Z,1.47
2022-08-19T23:48:07.852Z,1.50
2022-08-19T23:50:53.422Z,1.70
2022-08-19T23:53:40.424Z,1.42
2022-08-19T23:56:25.576Z,1.63
2022-08-19T23:59:10.965Z,1.23
